createdAt,value
2019-03-05T00:01:38.883Z,97972.00
2019-03-05T00:03:44.342Z,97947.00
2019-03-05T00:05:49.800Z,97957.00
2019-03-05T00:07:55.161Z,97968.00
2019-03-05T00:10:00.111Z,97957.00
2019-03-05T00:12:05.673Z,97955.00
2019-03-05T00:14:10.713Z,97966.00
2019-03-05T00:16:15.756Z,97972.00
2019-03-05T00:18:20.998Z,97963.00
2019-03-05T00:20:26.152Z,97966.00
2019-03-05T00:22:31.470Z,97973.00
2019-03-05T00:25:12.618Z,97981.00
2019-03-05T00:27:17.968Z,97972.00
2019-03-05T00:30:19.563Z,97975.00
2019-03-05T00:32:24.605Z,97976.00
2019-03-05T00:35:23.312Z,97974.00
2019-03-05T00:37:48.343Z,97984.00
2019-03-05T00:40:30.575Z,97979.00
2019-03-05T00:43:13.860Z,97980.00
2019-03-05T00:45:57.620Z,97986.00
2019-03-05T00:48:59.773Z,97986.00
2019-03-05T00:51:36.304Z,97989.00
2019-03-05T00:54:56.933Z,97991.00
2019-03-05T00:57:58.445Z,98009.00
2019-03-05T01:00:39.508Z,98007.00
2019-03-05T01:03:39.279Z,97992.00
2019-03-05T01:06:08.894Z,97998.00
2019-03-05T01:08:13.941Z,97988.00
2019-03-05T01:10:21.212Z,97999.00
2019-03-05T01:12:26.683Z,97995.00
2019-03-05T01:14:32.789Z,98002.00
2019-03-05T01:16:37.875Z,97988.00
2019-03-05T01:18:42.976Z,98004.00
2019-03-05T01:20:48.078Z,97996.00
2019-03-05T01:22:53.485Z,97995.00
2019-03-05T01:24:58.488Z,97997.00
2019-03-05T01:27:03.675Z,98009.00
2019-03-05T01:29:09.102Z,98000.00
2019-03-05T01:31:26.620Z,97998.00
2019-03-05T01:33:36.371Z,97997.00
2019-03-05T01:35:50.126Z,98008.00
2019-03-05T01:37:55.328Z,98011.00
2019-03-05T01:40:06.757Z,98010.00
2019-03-05T01:42:12.247Z,98014.00
2019-03-05T01:44:17.235Z,98008.00
2019-03-05T01:46:22.303Z,98000.00
2019-03-05T01:48:27.398Z,98002.00
2019-03-05T01:50:32.947Z,98003.00
2019-03-05T01:52:38.207Z,98013.00
2019-03-05T01:54:43.565Z,98004.00
2019-03-05T01:56:49.023Z,97999.00
2019-03-05T01:58:55.064Z,98013.00
2019-03-05T02:01:02.312Z,97999.00
2019-03-05T02:03:08.999Z,98000.00
2019-03-05T02:05:18.825Z,98005.00
2019-03-05T02:07:25.279Z,98011.00
2019-03-05T02:09:30.545Z,98018.00
2019-03-05T02:11:36.040Z,98014.00
2019-03-05T02:13:41.002Z,98013.00
2019-03-05T02:15:45.982Z,98029.00
2019-03-05T02:17:51.069Z,98026.00
2019-03-05T02:19:56.257Z,98011.00
2019-03-05T02:22:01.491Z,98018.00
2019-03-05T02:25:05.296Z,98033.00
2019-03-05T02:28:15.301Z,98033.00
2019-03-05T02:31:00.939Z,98036.00
2019-03-05T02:33:36.882Z,98029.00
2019-03-05T02:36:23.798Z,98041.00
2019-03-05T02:39:21.203Z,98044.00
2019-03-05T02:41:55.196Z,98034.00
2019-03-05T02:44:39.176Z,98047.00
2019-03-05T02:47:51.052Z,98043.00
2019-03-05T02:50:59.607Z,98030.00
2019-03-05T02:53:47.387Z,98046.00
2019-03-05T02:56:22.765Z,98035.00
2019-03-05T02:58:25.647Z,98039.00
2019-03-05T03:00:41.212Z,98031.00
2019-03-05T03:02:58.231Z,98026.00
2019-03-05T03:05:26.900Z,98035.00
2019-03-05T03:07:32.369Z,98042.00
2019-03-05T03:10:17.752Z,98039.00
2019-03-05T03:12:23.198Z,98033.00
2019-03-05T03:14:28.378Z,98046.00
2019-03-05T03:16:33.545Z,98030.00
2019-03-05T03:18:38.606Z,98040.00
2019-03-05T03:20:44.308Z,98050.00
2019-03-05T03:22:49.554Z,98049.00
2019-03-05T03:24:54.625Z,98049.00
2019-03-05T03:26:59.514Z,98047.00
2019-03-05T03:29:04.550Z,98040.00
2019-03-05T03:31:09.921Z,98046.00
2019-03-05T03:33:15.020Z,98039.00
2019-03-05T03:35:20.132Z,98048.00
2019-03-05T03:37:25.551Z,98046.00
2019-03-05T03:39:33.787Z,98057.00
2019-03-05T03:41:38.811Z,98059.00
2019-03-05T03:43:43.693Z,98058.00
2019-03-05T03:45:48.757Z,98060.00
2019-03-05T03:47:54.175Z,98050.00
2019-03-05T03:49:59.425Z,98048.00
2019-03-05T03:52:04.897Z,98057.00
2019-03-05T03:54:10.257Z,98053.00
2019-03-05T03:56:15.386Z,98052.00
2019-03-05T03:58:20.769Z,98055.00
2019-03-05T04:00:26.828Z,98062.00
2019-03-05T04:02:32.214Z,98061.00
2019-03-05T04:04:37.666Z,98045.00
2019-03-05T04:06:43.417Z,98067.00
2019-03-05T04:08:48.841Z,98065.00
2019-03-05T04:10:54.253Z,98070.00
2019-03-05T04:12:59.374Z,98049.00
2019-03-05T04:15:05.237Z,98062.00
2019-03-05T04:17:10.613Z,98067.00
2019-03-05T04:19:18.952Z,98061.00
2019-03-05T04:21:24.181Z,98073.00
2019-03-05T04:23:29.877Z,98062.00
2019-03-05T04:25:35.444Z,98065.00
2019-03-05T04:27:41.091Z,98061.00
2019-03-05T04:29:46.552Z,98057.00
2019-03-05T04:31:51.908Z,98057.00
2019-03-05T04:33:57.005Z,98068.00
2019-03-05T04:36:02.831Z,98069.00
2019-03-05T04:38:07.927Z,98070.00
2019-03-05T04:40:13.331Z,98073.00
2019-03-05T04:42:18.387Z,98060.00
2019-03-05T04:44:30.439Z,98056.00
2019-03-05T04:46:37.727Z,98071.00
2019-03-05T04:48:44.607Z,98064.00
2019-03-05T04:51:01.814Z,98068.00
2019-03-05T04:53:06.836Z,98064.00
2019-03-05T04:55:12.550Z,98064.00
2019-03-05T04:57:17.903Z,98063.00
2019-03-05T04:59:22.792Z,98069.00
2019-03-05T05:01:28.116Z,98071.00
2019-03-05T05:03:33.378Z,98077.00
2019-03-05T05:05:38.499Z,98079.00
2019-03-05T05:07:43.871Z,98076.00
2019-03-05T05:09:48.777Z,98067.00
2019-03-05T05:11:53.951Z,98079.00
2019-03-05T05:13:59.544Z,98072.00
2019-03-05T05:16:05.703Z,98063.00
2019-03-05T05:18:10.989Z,98064.00
2019-03-05T05:20:16.286Z,98076.00
2019-03-05T05:22:21.565Z,98077.00
2019-03-05T05:24:26.607Z,98073.00
2019-03-05T05:26:32.078Z,98077.00
2019-03-05T05:28:39.381Z,98063.00
2019-03-05T05:30:44.867Z,98082.00
2019-03-05T05:32:49.856Z,98072.00
2019-03-05T05:34:55.555Z,98067.00
2019-03-05T05:37:00.557Z,98076.00
2019-03-05T05:39:28.211Z,98071.00
2019-03-05T05:41:33.526Z,98073.00
2019-03-05T05:43:38.519Z,98071.00
2019-03-05T05:45:48.615Z,98057.00
2019-03-05T05:47:53.935Z,98068.00
2019-03-05T05:49:58.900Z,98069.00
2019-03-05T05:52:04.047Z,98072.00
2019-03-05T05:54:09.287Z,98076.00
2019-03-05T05:56:14.544Z,98072.00
2019-03-05T05:58:20.065Z,98076.00
2019-03-05T06:00:25.153Z,98084.00
2019-03-05T06:02:30.217Z,98069.00
2019-03-05T06:04:36.521Z,98078.00
2019-03-05T06:06:41.495Z,98074.00
2019-03-05T06:08:46.406Z,98063.00
2019-03-05T06:10:52.948Z,98070.00
2019-03-05T06:12:58.542Z,98076.00
2019-03-05T06:15:04.068Z,98068.00
2019-03-05T06:17:09.951Z,98078.00
2019-03-05T06:19:15.005Z,98084.00
2019-03-05T06:21:20.231Z,98079.00
2019-03-05T06:23:25.318Z,98087.00
2019-03-05T06:25:30.289Z,98087.00
2019-03-05T06:27:35.241Z,98098.00
2019-03-05T06:29:40.214Z,98092.00
2019-03-05T06:31:45.107Z,98089.00
2019-03-05T06:33:50.187Z,98102.00
2019-03-05T06:35:55.243Z,98101.00
2019-03-05T06:38:00.286Z,98099.00
2019-03-05T06:40:06.788Z,98104.00
2019-03-05T06:42:11.823Z,98102.00
2019-03-05T06:44:16.893Z,98107.00
2019-03-05T06:46:22.000Z,98112.00
2019-03-05T06:48:27.470Z,98109.00
2019-03-05T06:50:32.551Z,98109.00
2019-03-05T06:52:37.982Z,98107.00
2019-03-05T06:54:42.916Z,98109.00
2019-03-05T06:56:48.191Z,98116.00
2019-03-05T06:58:53.452Z,98116.00
2019-03-05T07:00:58.657Z,98108.00
2019-03-05T07:03:04.264Z,98111.00
2019-03-05T07:06:04.763Z,98119.00
2019-03-05T07:08:09.700Z,98126.00
2019-03-05T07:11:00.162Z,98127.00
2019-03-05T07:13:19.514Z,98132.00
2019-03-05T07:15:48.158Z,98140.00
2019-03-05T07:18:00.445Z,98131.00
2019-03-05T07:21:27.274Z,98129.00
2019-03-05T07:24:17.773Z,98141.00
2019-03-05T07:26:23.459Z,98139.00
2019-03-05T07:28:28.814Z,98133.00
2019-03-05T07:30:35.786Z,98140.00
2019-03-05T07:32:40.844Z,98145.00
2019-03-05T07:34:47.079Z,98149.00
2019-03-05T07:36:52.102Z,98139.00
2019-03-05T07:38:57.091Z,98143.00
2019-03-05T07:41:02.145Z,98149.00
2019-03-05T07:43:07.203Z,98145.00
2019-03-05T07:45:12.631Z,98150.00
2019-03-05T07:47:17.770Z,98151.00
2019-03-05T07:49:22.845Z,98159.00
2019-03-05T07:51:27.821Z,98165.00
2019-03-05T07:53:32.897Z,98151.00
2019-03-05T07:55:38.206Z,98171.00
2019-03-05T07:57:43.621Z,98166.00
2019-03-05T07:59:48.902Z,98163.00
2019-03-05T08:01:54.433Z,98170.00
2019-03-05T08:03:59.725Z,98166.00
2019-03-05T08:06:04.787Z,98169.00
2019-03-05T08:09:05.496Z,98164.00
2019-03-05T08:11:10.445Z,98173.00
2019-03-05T08:14:19.772Z,98176.00
2019-03-05T08:16:27.549Z,98195.00
2019-03-05T08:18:32.549Z,98202.00
2019-03-05T08:20:38.049Z,98190.00
2019-03-05T08:22:43.415Z,98198.00
2019-03-05T08:24:48.409Z,98195.00
2019-03-05T08:26:53.432Z,98202.00
2019-03-05T08:29:17.865Z,98202.00
2019-03-05T08:31:23.379Z,98212.00
2019-03-05T08:33:28.825Z,98218.00
2019-03-05T08:35:33.817Z,98208.00
2019-03-05T08:37:39.270Z,98218.00
2019-03-05T08:39:44.638Z,98219.00
2019-03-05T08:41:49.690Z,98217.00
2019-03-05T08:43:54.763Z,98228.00
2019-03-05T08:45:59.756Z,98229.00
2019-03-05T08:48:04.812Z,98233.00
2019-03-05T08:50:11.344Z,98233.00
2019-03-05T08:52:17.000Z,98233.00
2019-03-05T08:54:22.723Z,98229.00
2019-03-05T08:56:27.705Z,98239.00
2019-03-05T08:58:32.650Z,98238.00
2019-03-05T09:00:37.775Z,98243.00
2019-03-05T09:02:48.572Z,98248.00
2019-03-05T09:04:49.918Z,98238.00
2019-03-05T09:06:55.797Z,98245.00
2019-03-05T09:09:00.707Z,98241.00
2019-03-05T09:11:06.075Z,98242.00
2019-03-05T09:13:11.307Z,98254.00
2019-03-05T09:15:17.652Z,98253.00
2019-03-05T09:17:23.097Z,98244.00
2019-03-05T09:19:28.416Z,98245.00
2019-03-05T09:21:33.471Z,98256.00
2019-03-05T09:23:38.756Z,98263.00
2019-03-05T09:25:44.217Z,98254.00
2019-03-05T09:27:49.574Z,98261.00
2019-03-05T09:29:55.145Z,98260.00
2019-03-05T09:32:00.365Z,98263.00
2019-03-05T09:34:05.739Z,98260.00
2019-03-05T09:36:10.991Z,98263.00
2019-03-05T09:38:16.387Z,98269.00
2019-03-05T09:40:22.958Z,98261.00
2019-03-05T09:42:39.332Z,98261.00
2019-03-05T09:44:35.051Z,98274.00
2019-03-05T09:46:40.036Z,98258.00
2019-03-05T09:48:45.405Z,98262.00
2019-03-05T09:50:50.461Z,98271.00
2019-03-05T09:52:55.917Z,98268.00
2019-03-05T09:55:01.579Z,98270.00
2019-03-05T09:57:06.614Z,98273.00
2019-03-05T09:59:11.992Z,98271.00
2019-03-05T10:01:17.360Z,98283.00
2019-03-05T10:03:22.609Z,98270.00
2019-03-05T10:05:27.813Z,98274.00
2019-03-05T10:07:33.222Z,98273.00
2019-03-05T10:09:38.217Z,98274.00
2019-03-05T10:11:43.632Z,98279.00
2019-03-05T10:13:48.874Z,98284.00
2019-03-05T10:15:54.358Z,98282.00
2019-03-05T10:17:59.410Z,98293.00
2019-03-05T10:20:05.779Z,98285.00
2019-03-05T10:22:11.749Z,98283.00
2019-03-05T10:24:16.733Z,98292.00
2019-03-05T10:26:22.442Z,98291.00
2019-03-05T10:28:27.953Z,98290.00
2019-03-05T10:30:33.695Z,98274.00
2019-03-05T10:32:38.941Z,98291.00
2019-03-05T10:34:44.615Z,98297.00
2019-03-05T10:36:50.101Z,98296.00
2019-03-05T10:38:57.512Z,98309.00
2019-03-05T10:41:03.133Z,98311.00
2019-03-05T10:43:09.950Z,98302.00
2019-03-05T10:45:17.751Z,98313.00
2019-03-05T10:47:23.280Z,98313.00
2019-03-05T10:49:28.875Z,98311.00
2019-03-05T10:51:33.935Z,98321.00
2019-03-05T10:53:38.915Z,98315.00
2019-03-05T10:55:43.973Z,98327.00
2019-03-05T10:57:49.479Z,98321.00
2019-03-05T10:59:54.611Z,98322.00
2019-03-05T11:02:00.064Z,98329.00
2019-03-05T11:04:05.559Z,98313.00
2019-03-05T11:06:10.687Z,98315.00
2019-03-05T11:08:21.394Z,98310.00
2019-03-05T11:10:29.682Z,98311.00
2019-03-05T11:12:35.115Z,98322.00
2019-03-05T11:14:40.744Z,98318.00
2019-03-05T11:17:05.347Z,98316.00
2019-03-05T11:19:10.807Z,98316.00
2019-03-05T11:21:15.956Z,98321.00
2019-03-05T11:23:21.036Z,98328.00
2019-03-05T11:25:26.466Z,98322.00
2019-03-05T11:27:31.434Z,98321.00
2019-03-05T11:29:36.880Z,98327.00
2019-03-05T11:31:42.083Z,98325.00
2019-03-05T11:33:47.487Z,98321.00
2019-03-05T11:35:53.478Z,98322.00
2019-03-05T11:37:58.910Z,98317.00
2019-03-05T11:40:05.211Z,98320.00
2019-03-05T11:42:10.393Z,98328.00
2019-03-05T11:44:15.374Z,98322.00
2019-03-05T11:46:20.559Z,98324.00
2019-03-05T11:48:26.097Z,98336.00
2019-03-05T11:50:31.568Z,98324.00
2019-03-05T11:52:38.706Z,98335.00
2019-03-05T11:54:43.863Z,98340.00
2019-03-05T11:56:48.835Z,98338.00
2019-03-05T11:58:54.141Z,98341.00
2019-03-05T12:01:16.065Z,98345.00
2019-03-05T12:03:21.443Z,98345.00
2019-03-05T12:05:26.784Z,98348.00
2019-03-05T12:07:32.297Z,98343.00
2019-03-05T12:09:37.220Z,98356.00
2019-03-05T12:11:42.444Z,98353.00
2019-03-05T12:13:47.498Z,98358.00
2019-03-05T12:15:52.650Z,98365.00
2019-03-05T12:17:57.956Z,98352.00
2019-03-05T12:20:03.263Z,98373.00
2019-03-05T12:22:08.730Z,98370.00
2019-03-05T12:24:13.885Z,98354.00
2019-03-05T12:26:19.399Z,98356.00
2019-03-05T12:28:24.643Z,98352.00
2019-03-05T12:30:30.143Z,98354.00
2019-03-05T12:32:35.321Z,98364.00
2019-03-05T12:34:40.316Z,98357.00
2019-03-05T12:36:45.485Z,98350.00
2019-03-05T12:38:50.501Z,98365.00
2019-03-05T12:40:55.626Z,98352.00
2019-03-05T12:43:00.641Z,98350.00
2019-03-05T12:45:07.161Z,98334.00
2019-03-05T12:47:33.681Z,98339.00
2019-03-05T12:49:39.257Z,98342.00
2019-03-05T12:51:44.225Z,98361.00
2019-03-05T12:53:49.475Z,98354.00
2019-03-05T12:55:55.849Z,98351.00
2019-03-05T12:58:00.743Z,98352.00
2019-03-05T13:00:10.436Z,98364.00
2019-03-05T13:02:15.714Z,98357.00
2019-03-05T13:04:21.303Z,98362.00
2019-03-05T13:06:26.775Z,98363.00
2019-03-05T13:08:32.404Z,98368.00
2019-03-05T13:10:38.175Z,98365.00
2019-03-05T13:12:43.601Z,98372.00
2019-03-05T13:14:48.980Z,98377.00
2019-03-05T13:16:54.540Z,98377.00
2019-03-05T13:18:59.646Z,98371.00
2019-03-05T13:21:07.656Z,98379.00
2019-03-05T13:23:11.654Z,98370.00
2019-03-05T13:25:17.644Z,98382.00
2019-03-05T13:27:23.714Z,98370.00
2019-03-05T13:29:28.950Z,98377.00
2019-03-05T13:31:34.092Z,98370.00
2019-03-05T13:33:42.015Z,98375.00
2019-03-05T13:35:46.599Z,98385.00
2019-03-05T13:37:51.711Z,98385.00
2019-03-05T13:39:58.250Z,98390.00
2019-03-05T13:42:04.046Z,98390.00
2019-03-05T13:44:34.042Z,98389.00
2019-03-05T13:46:39.440Z,98390.00
2019-03-05T13:49:40.653Z,98392.00
2019-03-05T13:52:35.993Z,98394.00
2019-03-05T13:55:14.258Z,98407.00
2019-03-05T13:58:13.584Z,98391.00
2019-03-05T14:00:19.038Z,98398.00
2019-03-05T14:02:33.735Z,98400.00
2019-03-05T14:05:16.632Z,98402.00
2019-03-05T14:08:45.101Z,98415.00
2019-03-05T14:10:50.965Z,98415.00
2019-03-05T14:12:56.615Z,98410.00
2019-03-05T14:15:01.531Z,98432.00
2019-03-05T14:17:20.821Z,98438.00
2019-03-05T14:19:25.829Z,98424.00
2019-03-05T14:21:31.124Z,98434.00
2019-03-05T14:23:36.530Z,98428.00
2019-03-05T14:25:41.898Z,98432.00
2019-03-05T14:27:46.956Z,98445.00
2019-03-05T14:29:52.087Z,98457.00
2019-03-05T14:31:57.540Z,98456.00
2019-03-05T14:36:27.000Z,98468.00
2019-03-05T14:38:32.726Z,98466.00
2019-03-05T14:40:38.079Z,98464.00
2019-03-05T14:42:43.272Z,98459.00
2019-03-05T14:44:49.141Z,98459.00
2019-03-05T14:46:59.905Z,98453.00
2019-03-05T14:49:05.083Z,98452.00
2019-03-05T14:51:10.663Z,98471.00
2019-03-05T14:53:15.983Z,98469.00
2019-03-05T14:55:21.420Z,98455.00
2019-03-05T14:57:26.415Z,98466.00
2019-03-05T14:59:31.890Z,98476.00
2019-03-05T15:01:37.022Z,98475.00
2019-03-05T15:03:42.538Z,98481.00
2019-03-05T15:05:47.582Z,98479.00
2019-03-05T15:07:53.264Z,98473.00
2019-03-05T15:09:58.256Z,98478.00
2019-03-05T15:12:04.051Z,98478.00
2019-03-05T15:14:09.326Z,98482.00
2019-03-05T15:16:14.211Z,98492.00
2019-03-05T15:18:19.047Z,98489.00
2019-03-05T15:20:24.491Z,98492.00
2019-03-05T15:22:29.925Z,98489.00
2019-03-05T15:24:35.214Z,98495.00
2019-03-05T15:26:40.148Z,98490.00
2019-03-05T15:28:55.742Z,98488.00
2019-03-05T15:30:52.305Z,98493.00
2019-03-05T15:32:57.245Z,98496.00
2019-03-05T15:35:02.784Z,98492.00
2019-03-05T15:37:07.964Z,98502.00
2019-03-05T15:39:13.448Z,98509.00
2019-03-05T15:41:18.725Z,98515.00
2019-03-05T15:43:23.728Z,98502.00
2019-03-05T15:45:29.223Z,98515.00
2019-03-05T15:47:34.398Z,98520.00
2019-03-05T15:49:39.970Z,98514.00
2019-03-05T15:51:45.166Z,98516.00
2019-03-05T15:53:50.513Z,98507.00
2019-03-05T15:55:56.240Z,98511.00
2019-03-05T15:58:01.184Z,98517.00
2019-03-05T16:00:12.540Z,98522.00
2019-03-05T16:02:17.719Z,98511.00
2019-03-05T16:04:22.968Z,98514.00
2019-03-05T16:06:30.069Z,98522.00
2019-03-05T16:08:35.454Z,98527.00
2019-03-05T16:10:40.742Z,98528.00
2019-03-05T16:12:46.463Z,98516.00
2019-03-05T16:14:51.384Z,98537.00
2019-03-05T16:16:56.647Z,98528.00
2019-03-05T16:19:02.529Z,98535.00
2019-03-05T16:21:07.612Z,98534.00
2019-03-05T16:23:12.991Z,98534.00
2019-03-05T16:25:18.617Z,98541.00
2019-03-05T16:27:23.478Z,98542.00
2019-03-05T16:29:28.769Z,98531.00
2019-03-05T16:31:45.390Z,98540.00
2019-03-05T16:34:09.355Z,98548.00
2019-03-05T16:36:32.376Z,98560.00
2019-03-05T16:38:55.169Z,98549.00
2019-03-05T16:41:12.191Z,98545.00
2019-03-05T16:43:51.311Z,98556.00
2019-03-05T16:46:14.045Z,98555.00
2019-03-05T16:48:47.314Z,98562.00
2019-03-05T16:51:20.960Z,98565.00
2019-03-05T16:53:44.972Z,98558.00
2019-03-05T16:56:24.799Z,98563.00
2019-03-05T16:58:57.552Z,98568.00
2019-03-05T17:01:34.161Z,98582.00
2019-03-05T17:04:07.739Z,98578.00
2019-03-05T17:06:30.909Z,98575.00
2019-03-05T17:09:00.904Z,98585.00
2019-03-05T17:11:23.918Z,98591.00
2019-03-05T17:13:29.468Z,98602.00
2019-03-05T17:15:34.869Z,98601.00
2019-03-05T17:17:40.051Z,98598.00
2019-03-05T17:19:44.994Z,98598.00
2019-03-05T17:21:50.076Z,98605.00
2019-03-05T17:23:55.293Z,98610.00
2019-03-05T17:26:00.467Z,98614.00
2019-03-05T17:28:05.664Z,98617.00
2019-03-05T17:30:15.491Z,98620.00
2019-03-05T17:32:20.677Z,98621.00
2019-03-05T17:34:26.089Z,98622.00
2019-03-05T17:36:31.447Z,98635.00
2019-03-05T17:38:37.729Z,98637.00
2019-03-05T17:40:42.867Z,98636.00
2019-03-05T17:42:50.232Z,98641.00
2019-03-05T17:44:55.325Z,98638.00
2019-03-05T17:47:00.665Z,98634.00
2019-03-05T17:49:07.868Z,98643.00
2019-03-05T17:51:12.759Z,98646.00
2019-03-05T17:53:17.732Z,98662.00
2019-03-05T17:55:25.281Z,98644.00
2019-03-05T17:57:30.265Z,98647.00
2019-03-05T17:59:36.152Z,98665.00
2019-03-05T18:01:41.394Z,98656.00
2019-03-05T18:03:47.132Z,98663.00
2019-03-05T18:05:52.699Z,98665.00
2019-03-05T18:07:58.657Z,98675.00
2019-03-05T18:10:04.730Z,98669.00
2019-03-05T18:12:09.809Z,98685.00
2019-03-05T18:14:15.477Z,98681.00
2019-03-05T18:16:20.708Z,98689.00
2019-03-05T18:18:25.621Z,98693.00
2019-03-05T18:20:30.646Z,98684.00
2019-03-05T18:22:35.636Z,98693.00
2019-03-05T18:24:41.052Z,98691.00
2019-03-05T18:26:46.021Z,98688.00
2019-03-05T18:28:51.730Z,98689.00
2019-03-05T18:30:56.711Z,98700.00
2019-03-05T18:33:01.638Z,98698.00
2019-03-05T18:35:07.959Z,98703.00
2019-03-05T18:37:12.833Z,98704.00
2019-03-05T18:39:18.820Z,98705.00
2019-03-05T18:41:24.086Z,98711.00
2019-03-05T18:43:29.498Z,98709.00
2019-03-05T18:45:34.811Z,98716.00
2019-03-05T18:47:39.731Z,98715.00
2019-03-05T18:49:45.103Z,98721.00
2019-03-05T18:51:50.163Z,98722.00
2019-03-05T18:53:57.985Z,98731.00
2019-03-05T18:56:05.292Z,98730.00
2019-03-05T18:58:10.575Z,98731.00
2019-03-05T19:00:21.884Z,98733.00
2019-03-05T19:02:26.939Z,98732.00
2019-03-05T19:04:32.415Z,98721.00
2019-03-05T19:06:37.623Z,98729.00
2019-03-05T19:08:43.039Z,98735.00
2019-03-05T19:10:48.523Z,98729.00
2019-03-05T19:12:54.077Z,98723.00
2019-03-05T19:14:59.540Z,98728.00
2019-03-05T19:17:04.973Z,98727.00
2019-03-05T19:19:10.747Z,98726.00
2019-03-05T19:21:16.044Z,98744.00
2019-03-05T19:23:21.493Z,98737.00
2019-03-05T19:25:28.887Z,98744.00
2019-03-05T19:27:34.330Z,98742.00
2019-03-05T19:29:40.004Z,98744.00
2019-03-05T19:31:45.786Z,98747.00
2019-03-05T19:33:51.565Z,98752.00
2019-03-05T19:35:57.041Z,98748.00
2019-03-05T19:38:02.506Z,98749.00
2019-03-05T19:40:10.507Z,98754.00
2019-03-05T19:42:16.170Z,98752.00
2019-03-05T19:44:21.582Z,98750.00
2019-03-05T19:46:26.966Z,98751.00
2019-03-05T19:48:33.202Z,98749.00
2019-03-05T19:50:38.615Z,98760.00
2019-03-05T19:52:44.281Z,98757.00
2019-03-05T19:54:49.751Z,98759.00
2019-03-05T19:56:54.788Z,98760.00
2019-03-05T19:58:59.938Z,98762.00
2019-03-05T20:01:11.972Z,98776.00
2019-03-05T20:03:16.922Z,98770.00
2019-03-05T20:05:21.874Z,98767.00
2019-03-05T20:07:27.116Z,98762.00
2019-03-05T20:09:32.664Z,98765.00
2019-03-05T20:11:37.803Z,98766.00
2019-03-05T20:13:42.995Z,98762.00
2019-03-05T20:15:48.264Z,98763.00
2019-03-05T20:17:58.863Z,98765.00
2019-03-05T20:19:59.889Z,98770.00
2019-03-05T20:22:05.131Z,98769.00
2019-03-05T20:24:10.581Z,98770.00
2019-03-05T20:26:17.193Z,98768.00
2019-03-05T20:28:23.249Z,98772.00
2019-03-05T20:30:28.287Z,98771.00
2019-03-05T20:32:33.451Z,98778.00
2019-03-05T20:34:39.723Z,98767.00
2019-03-05T20:36:45.106Z,98772.00
2019-03-05T20:38:50.550Z,98772.00
2019-03-05T20:40:56.521Z,98775.00
2019-03-05T20:43:02.079Z,98776.00
2019-03-05T20:45:13.301Z,98777.00
2019-03-05T20:47:18.179Z,98770.00
2019-03-05T20:49:23.436Z,98772.00
2019-03-05T20:51:28.847Z,98760.00
2019-03-05T20:53:33.914Z,98776.00
2019-03-05T20:55:39.743Z,98774.00
2019-03-05T20:57:45.091Z,98772.00
2019-03-05T20:59:49.974Z,98770.00
2019-03-05T21:01:55.327Z,98779.00
2019-03-05T21:04:00.948Z,98783.00
2019-03-05T21:06:06.284Z,98781.00
2019-03-05T21:08:11.726Z,98784.00
2019-03-05T21:10:16.931Z,98785.00
2019-03-05T21:12:22.153Z,98786.00
2019-03-05T21:14:27.816Z,98782.00
2019-03-05T21:16:33.124Z,98794.00
2019-03-05T21:18:39.004Z,98785.00
2019-03-05T21:20:44.074Z,98794.00
2019-03-05T21:22:49.075Z,98792.00
2019-03-05T21:24:54.648Z,98788.00
2019-03-05T21:26:59.521Z,98792.00
2019-03-05T21:29:04.693Z,98777.00
2019-03-05T21:31:09.929Z,98791.00
2019-03-05T21:33:15.160Z,98780.00
2019-03-05T21:35:20.385Z,98782.00
2019-03-05T21:37:26.092Z,98780.00
2019-03-05T21:39:31.389Z,98772.00
2019-03-05T21:41:36.628Z,98775.00
2019-03-05T21:43:41.758Z,98777.00
2019-03-05T21:45:47.215Z,98776.00
2019-03-05T21:47:54.869Z,98773.00
2019-03-05T21:50:02.439Z,98777.00
2019-03-05T21:52:10.018Z,98782.00
2019-03-05T21:54:14.947Z,98785.00
2019-03-05T21:56:20.152Z,98781.00
2019-03-05T21:58:25.355Z,98787.00
2019-03-05T22:00:31.031Z,98784.00
2019-03-05T22:02:36.336Z,98798.00
2019-03-05T22:04:41.189Z,98792.00
2019-03-05T22:06:46.647Z,98800.00
2019-03-05T22:08:51.856Z,98800.00
2019-03-05T22:10:57.240Z,98797.00
2019-03-05T22:13:02.330Z,98798.00
2019-03-05T22:15:08.967Z,98787.00
2019-03-05T22:17:15.381Z,98791.00
2019-03-05T22:19:20.523Z,98795.00
2019-03-05T22:21:26.384Z,98798.00
2019-03-05T22:23:31.386Z,98795.00
2019-03-05T22:25:37.723Z,98793.00
2019-03-05T22:27:44.302Z,98812.00
2019-03-05T22:29:49.226Z,98802.00
2019-03-05T22:31:54.667Z,98798.00
2019-03-05T22:33:59.896Z,98799.00
2019-03-05T22:36:04.976Z,98796.00
2019-03-05T22:38:10.215Z,98794.00
2019-03-05T22:40:16.146Z,98794.00
2019-03-05T22:42:21.416Z,98799.00
2019-03-05T22:44:26.283Z,98794.00
2019-03-05T22:46:31.523Z,98783.00
2019-03-05T22:48:36.775Z,98785.00
2019-03-05T22:50:42.014Z,98782.00
2019-03-05T22:52:47.682Z,98792.00
2019-03-05T22:54:52.813Z,98786.00
2019-03-05T22:56:58.059Z,98787.00
2019-03-05T22:59:03.648Z,98783.00
2019-03-05T23:01:14.748Z,98784.00
2019-03-05T23:03:21.612Z,98778.00
2019-03-05T23:05:27.277Z,98776.00
2019-03-05T23:07:32.966Z,98782.00
2019-03-05T23:09:38.264Z,98784.00
2019-03-05T23:11:43.871Z,98770.00
2019-03-05T23:13:49.959Z,98780.00
2019-03-05T23:15:55.642Z,98788.00
2019-03-05T23:18:01.225Z,98786.00
2019-03-05T23:20:07.812Z,98780.00
2019-03-05T23:22:13.398Z,98770.00
2019-03-05T23:24:18.396Z,98771.00
2019-03-05T23:26:24.050Z,98782.00
2019-03-05T23:28:29.182Z,98770.00
2019-03-05T23:30:34.097Z,98772.00
2019-03-05T23:32:40.034Z,98767.00
2019-03-05T23:34:45.547Z,98763.00
2019-03-05T23:36:50.824Z,98764.00
2019-03-05T23:38:56.336Z,98763.00
2019-03-05T23:41:01.403Z,98766.00
2019-03-05T23:43:06.480Z,98758.00
2019-03-05T23:45:12.274Z,98759.00
2019-03-05T23:47:17.932Z,98750.00
2019-03-05T23:49:23.206Z,98752.00
2019-03-05T23:51:28.052Z,98751.00
2019-03-05T23:53:34.116Z,98750.00
2019-03-05T23:55:39.281Z,98746.00
2019-03-05T23:57:44.929Z,98740.00
2019-03-05T23:59:50.170Z,98745.00
